Time;durP1;ratioP1;P1;durP2;ratioP2;P2;SDS_P1;SDS_P2;PMS_P1;PMS_P2;Temp;Humidity;BMP_temperature;BMP_pressure;BME280_temperature;BME280_humidity;BME280_pressure;Samples;Min_cycle;Max_cycle;Signal;HPM_P1;HPM_P2
2023/06/17 00:01:05;;;;;;;1.80;1.23;;;24.00;54.50;;;;;;5016379;28;20025;-81
2023/06/17 00:03:31;;;;;;;1.70;1.17;;;23.90;54.50;;;;;;5032189;28;20029;-81
2023/06/17 00:05:56;;;;;;;2.40;1.65;;;23.90;54.70;;;;;;5032183;28;20034;-81
2023/06/17 00:08:22;;;;;;;1.45;1.35;;;23.90;54.90;;;;;;5032364;28;20037;-81
2023/06/17 00:10:48;;;;;;;1.90;1.52;;;23.90;55.00;;;;;;5033980;28;20033;-81
2023/06/17 00:13:18;;;;;;;2.92;1.58;;;23.90;55.20;;;;;;5033702;28;20120;-82
2023/06/17 00:15:50;;;;;;;2.35;1.30;;;23.90;55.40;;;;;;5034027;28;20025;-81
2023/06/17 00:18:19;;;;;;;3.05;1.40;;;23.80;55.40;;;;;;5032822;28;20044;-81
2023/06/17 00:20:46;;;;;;;1.58;1.40;;;23.70;55.40;;;;;;5032355;28;20176;-81
2023/06/17 00:23:12;;;;;;;1.70;1.05;;;23.70;55.50;;;;;;5032226;28;20037;-81
2023/06/17 00:25:37;;;;;;;2.88;1.80;;;23.70;55.50;;;;;;5032141;28;20478;-81
2023/06/17 00:28:03;;;;;;;1.45;1.13;;;23.80;55.50;;;;;;5032669;28;20037;-81
2023/06/17 00:30:29;;;;;;;2.95;1.40;;;23.80;55.50;;;;;;5033310;28;20026;-81
2023/06/17 00:32:54;;;;;;;2.03;1.30;;;23.80;55.60;;;;;;5032389;28;20064;-81
2023/06/17 00:35:20;;;;;;;3.42;1.40;;;23.70;55.50;;;;;;5032217;28;20129;-81
2023/06/17 00:37:46;;;;;;;1.65;1.33;;;23.80;55.70;;;;;;5032218;28;20071;-81
2023/06/17 00:40:12;;;;;;;1.92;1.25;;;23.80;55.70;;;;;;5031947;28;20467;-81
2023/06/17 00:42:37;;;;;;;1.80;1.38;;;23.80;55.80;;;;;;5032683;28;20025;-81
2023/06/17 00:45:04;;;;;;;2.13;1.40;;;23.80;55.80;;;;;;5032974;28;20417;-81
2023/06/17 00:47:30;;;;;;;2.80;1.38;;;23.70;55.80;;;;;;5031714;28;20065;-81
2023/06/17 00:49:56;;;;;;;2.35;1.50;;;23.70;55.90;;;;;;5016120;28;20026;-81
2023/06/17 00:52:22;;;;;;;1.90;1.25;;;23.70;56.00;;;;;;5032184;28;20029;-81
2023/06/17 00:54:47;;;;;;;1.60;1.45;;;23.60;56.10;;;;;;5033376;28;20447;-81
2023/06/17 00:57:14;;;;;;;2.40;1.15;;;23.70;56.20;;;;;;4999423;28;20041;-81
2023/06/17 00:59:42;;;;;;;2.58;1.35;;;23.70;56.20;;;;;;5032616;28;20063;-81
2023/06/17 01:02:09;;;;;;;1.90;1.70;;;23.70;56.20;;;;;;5033700;28;20025;-81
2023/06/17 01:04:43;;;;;;;2.30;1.67;;;23.60;56.30;;;;;;5032228;28;20022;-81
2023/06/17 01:07:26;;;;;;;1.70;1.52;;;23.60;56.50;;;;;;5032005;28;20034;-81
2023/06/17 01:10:12;;;;;;;2.00;1.77;;;23.60;57.10;;;;;;5033298;28;20025;-81
2023/06/17 01:12:40;;;;;;;3.70;1.63;;;23.60;56.60;;;;;;5033353;28;20079;-81
2023/06/17 01:15:08;;;;;;;1.83;1.40;;;23.60;56.70;;;;;;5033391;28;20063;-81
2023/06/17 01:17:35;;;;;;;2.38;1.38;;;23.50;56.60;;;;;;5036638;28;20071;-81
2023/06/17 01:20:06;;;;;;;2.35;1.67;;;23.60;56.80;;;;;;5019781;28;20057;-81
2023/06/17 01:22:34;;;;;;;3.17;1.20;;;23.60;56.90;;;;;;5036178;28;20029;-81
2023/06/17 01:25:02;;;;;;;1.45;1.35;;;23.50;56.90;;;;;;5035468;28;20044;-81
2023/06/17 01:27:28;;;;;;;2.83;1.20;;;23.50;56.90;;;;;;5035977;28;20033;-81
2023/06/17 01:29:54;;;;;;;1.85;1.55;;;23.50;57.10;;;;;;5036068;28;20480;-81
2023/06/17 01:32:20;;;;;;;4.72;1.80;;;23.50;57.10;;;;;;5035745;28;20120;-80
2023/06/17 01:34:58;;;;;;;1.58;1.40;;;23.50;57.10;;;;;;5036301;28;20040;-81
2023/06/17 01:37:31;;;;;;;1.85;1.50;;;23.50;57.10;;;;;;5035806;28;20041;-81
2023/06/17 01:39:59;;;;;;;3.55;1.50;;;23.50;57.20;;;;;;5036478;28;20024;-81
2023/06/17 01:42:31;;;;;;;1.90;1.38;;;23.40;57.50;;;;;;5036542;28;20053;-81
2023/06/17 01:45:03;;;;;;;1.75;1.50;;;23.40;57.40;;;;;;5035732;28;20025;-81
2023/06/17 01:47:29;;;;;;;2.53;1.50;;;23.40;57.50;;;;;;5035312;28;20036;-81
2023/06/17 01:50:01;;;;;;;1.45;1.15;;;23.40;57.50;;;;;;5036446;28;20034;-81
2023/06/17 01:52:26;;;;;;;2.47;1.50;;;23.30;57.50;;;;;;5036640;28;20034;-81
2023/06/17 01:54:53;;;;;;;2.17;1.75;;;23.30;57.60;;;;;;5002756;28;20033;-80
2023/06/17 01:57:19;;;;;;;1.80;1.52;;;23.30;57.70;;;;;;5034900;28;20041;-81
2023/06/17 01:59:44;;;;;;;1.92;1.70;;;23.20;57.80;;;;;;5036484;28;20061;-81
2023/06/17 02:02:10;;;;;;;2.13;1.83;;;23.20;58.00;;;;;;5034863;28;20037;-81
2023/06/17 02:04:36;;;;;;;2.10;1.80;;;23.10;58.00;;;;;;5034862;28;20033;-81
2023/06/17 02:07:02;;;;;;;4.50;1.73;;;23.10;58.10;;;;;;5034677;28;20116;-78
2023/06/17 02:09:28;;;;;;;1.55;1.30;;;23.20;58.20;;;;;;5036395;28;20466;-77
2023/06/17 02:11:54;;;;;;;1.75;1.60;;;23.10;58.10;;;;;;5035150;28;20049;-78
2023/06/17 02:14:19;;;;;;;2.72;1.70;;;23.20;58.30;;;;;;5035866;28;20056;-77
2023/06/17 02:16:48;;;;;;;1.80;1.70;;;23.10;58.30;;;;;;5035863;28;20036;-77
2023/06/17 02:19:15;;;;;;;2.47;1.88;;;23.10;58.40;;;;;;5035085;28;20042;-77
2023/06/17 02:21:42;;;;;;;3.28;1.70;;;23.00;58.50;;;;;;5035675;28;20029;-77
2023/06/17 02:24:07;;;;;;;2.15;1.40;;;22.90;58.60;;;;;;5035626;28;20033;-77
2023/06/17 02:26:33;;;;;;;3.25;1.60;;;22.90;58.60;;;;;;5035784;28;20037;-77
2023/06/17 02:28:59;;;;;;;2.00;1.23;;;22.90;58.80;;;;;;5034229;28;20430;-78
2023/06/17 02:31:27;;;;;;;1.95;1.65;;;22.90;58.90;;;;;;5034783;28;20037;-78
2023/06/17 02:33:53;;;;;;;2.05;1.50;;;22.90;59.00;;;;;;5035984;28;20056;-78
2023/06/17 02:36:19;;;;;;;2.80;1.85;;;22.90;59.10;;;;;;5035732;28;20041;-78
2023/06/17 02:38:45;;;;;;;2.60;1.73;;;22.90;59.20;;;;;;5035280;28;20044;-78
2023/06/17 02:41:11;;;;;;;2.60;1.75;;;22.90;59.30;;;;;;5033976;28;20021;-78
2023/06/17 02:43:37;;;;;;;2.15;1.67;;;22.90;59.50;;;;;;5034270;28;20033;-78
2023/06/17 02:46:02;;;;;;;2.58;1.95;;;22.80;59.50;;;;;;5035257;28;20459;-78
2023/06/17 02:48:28;;;;;;;2.00;1.80;;;22.80;59.60;;;;;;5034977;28;20061;-78
2023/06/17 02:50:54;;;;;;;2.53;2.03;;;22.80;59.70;;;;;;5017504;28;20068;-78
2023/06/17 02:53:20;;;;;;;1.92;1.73;;;22.80;59.70;;;;;;5035387;28;20462;-78
2023/06/17 02:55:48;;;;;;;2.25;1.58;;;22.80;59.70;;;;;;5033513;28;20040;-78
2023/06/17 02:58:15;;;;;;;1.60;1.40;;;22.80;59.80;;;;;;5034952;28;20123;-76
2023/06/17 03:00:42;;;;;;;2.65;1.85;;;22.80;59.80;;;;;;5034881;28;20036;-78
2023/06/17 03:03:09;;;;;;;2.10;1.42;;;22.80;59.80;;;;;;5016961;28;20029;-78
2023/06/17 03:05:37;;;;;;;2.00;1.80;;;22.80;60.10;;;;;;5034913;28;20057;-78
2023/06/17 03:08:03;;;;;;;2.10;1.60;;;22.80;60.00;;;;;;5033636;28;20048;-77
2023/06/17 03:10:29;;;;;;;2.55;2.33;;;22.70;60.10;;;;;;5033808;28;20052;-77
2023/06/17 03:12:55;;;;;;;4.47;2.42;;;22.70;60.20;;;;;;5034962;28;20450;-78
2023/06/17 03:15:21;;;;;;;2.35;2.15;;;22.70;60.20;;;;;;5034486;28;20510;-78
2023/06/17 03:17:46;;;;;;;3.03;2.40;;;22.70;60.30;;;;;;5034582;28;20045;-77
2023/06/17 03:20:12;;;;;;;2.30;1.80;;;22.60;60.40;;;;;;5033853;28;20031;-78
2023/06/17 03:22:38;;;;;;;3.25;2.05;;;22.70;60.50;;;;;;5034570;28;20025;-78
2023/06/17 03:25:05;;;;;;;2.90;1.98;;;22.60;60.50;;;;;;5033231;28;20021;-78
2023/06/17 03:27:31;;;;;;;3.22;2.38;;;22.60;60.70;;;;;;5032935;28;20034;-78
2023/06/17 03:29:57;;;;;;;2.17;1.98;;;22.60;60.90;;;;;;5016464;28;20029;-77
2023/06/17 03:32:22;;;;;;;2.55;2.15;;;22.60;61.00;;;;;;5034347;28;20029;-77
2023/06/17 03:34:49;;;;;;;2.20;2.00;;;22.60;61.10;;;;;;5033194;28;20497;-78
2023/06/17 03:37:14;;;;;;;2.10;1.80;;;22.50;61.10;;;;;;5034333;28;20041;-78
2023/06/17 03:39:42;;;;;;;2.05;1.83;;;22.50;61.10;;;;;;5016325;28;20036;-76
2023/06/17 03:42:08;;;;;;;1.88;1.75;;;22.50;61.20;;;;;;5034179;28;20381;-78
2023/06/17 03:44:33;;;;;;;2.05;1.85;;;22.50;61.20;;;;;;5016573;28;20034;-78
2023/06/17 03:46:59;;;;;;;2.05;1.88;;;22.50;61.20;;;;;;5034065;28;20025;-78
2023/06/17 03:49:25;;;;;;;1.70;1.60;;;22.50;61.10;;;;;;5034650;28;20136;-78
2023/06/17 03:51:51;;;;;;;2.50;2.30;;;22.60;61.10;;;;;;5032778;28;20116;-78
2023/06/17 03:54:16;;;;;;;7.60;2.67;;;22.60;61.20;;;;;;5033897;28;20029;-78
2023/06/17 03:56:42;;;;;;;2.40;2.20;;;22.50;61.20;;;;;;5033561;28;20021;-78
2023/06/17 03:59:08;;;;;;;2.30;2.10;;;22.50;61.20;;;;;;5034134;28;20470;-78
2023/06/17 04:01:35;;;;;;;2.67;2.47;;;22.50;61.20;;;;;;5016705;28;20120;-78
2023/06/17 04:04:01;;;;;;;2.97;2.67;;;22.60;61.30;;;;;;5032248;28;20052;-77
2023/06/17 04:06:26;;;;;;;2.88;2.30;;;22.50;61.30;;;;;;5033751;28;20496;-78
2023/06/17 04:08:53;;;;;;;2.97;2.38;;;22.50;61.40;;;;;;5034111;28;20128;-78
2023/06/17 04:11:19;;;;;;;2.38;2.10;;;22.50;61.40;;;;;;5032428;28;20120;-78
2023/06/17 04:13:44;;;;;;;3.40;1.80;;;22.50;61.40;;;;;;5033970;28;20132;-78
2023/06/17 04:16:11;;;;;;;2.70;2.08;;;22.50;61.40;;;;;;5032325;28;20037;-78
2023/06/17 04:18:36;;;;;;;2.67;2.47;;;22.50;61.40;;;;;;5033592;28;20402;-77
2023/06/17 04:21:02;;;;;;;2.63;2.42;;;22.40;61.40;;;;;;5033078;28;20022;-78
2023/06/17 04:23:28;;;;;;;3.28;2.55;;;22.50;61.40;;;;;;5032623;28;20030;-77
2023/06/17 04:25:56;;;;;;;2.97;2.55;;;22.50;61.40;;;;;;5032604;28;20028;-78
2023/06/17 04:28:22;;;;;;;2.80;2.60;;;22.40;61.30;;;;;;5033802;28;20506;-77
2023/06/17 04:30:51;;;;;;;2.78;2.58;;;22.50;61.40;;;;;;5033969;28;20038;-78
2023/06/17 04:33:17;;;;;;;7.28;3.45;;;22.50;61.50;;;;;;5032176;28;20037;-79
2023/06/17 04:35:42;;;;;;;2.88;2.60;;;22.50;61.50;;;;;;5032273;28;20026;-77
2023/06/17 04:38:11;;;;;;;3.22;2.30;;;22.50;61.70;;;;;;5033357;28;20029;-78
2023/06/17 04:40:37;;;;;;;2.88;2.58;;;22.50;61.60;;;;;;5033229;28;20026;-78
2023/06/17 04:43:03;;;;;;;4.93;3.13;;;22.50;61.80;;;;;;5033544;28;20080;-78
2023/06/17 04:45:30;;;;;;;3.35;2.63;;;22.60;61.80;;;;;;5033503;28;20026;-78
2023/06/17 04:47:56;;;;;;;2.72;2.53;;;22.60;61.90;;;;;;5033297;28;20053;-78
2023/06/17 04:50:23;;;;;;;2.58;2.15;;;22.60;61.90;;;;;;5033182;28;20562;-78
2023/06/17 04:52:52;;;;;;;3.05;2.47;;;22.60;62.10;;;;;;5037387;28;20026;-78
2023/06/17 04:55:21;;;;;;;3.63;2.97;;;22.50;62.10;;;;;;5037326;28;20100;-77
2023/06/17 04:57:46;;;;;;;3.40;2.90;;;22.50;62.30;;;;;;5037582;28;20151;-78
2023/06/17 05:00:13;;;;;;;2.95;2.67;;;22.50;62.40;;;;;;5037257;28;20037;-78
2023/06/17 05:02:40;;;;;;;4.68;2.53;;;22.60;62.40;;;;;;5037150;28;20033;-78
2023/06/17 05:05:06;;;;;;;3.60;3.30;;;22.60;62.30;;;;;;5036034;28;20147;-78
2023/06/17 05:07:33;;;;;;;3.92;3.63;;;22.60;62.40;;;;;;5035798;28;20025;-78
2023/06/17 05:09:58;;;;;;;2.80;2.47;;;22.70;62.50;;;;;;5037333;28;20068;-78
2023/06/17 05:12:24;;;;;;;3.00;2.70;;;22.70;62.60;;;;;;5037326;28;20118;-78
2023/06/17 05:14:50;;;;;;;4.53;2.88;;;22.70;62.60;;;;;;5036991;28;20036;-78
2023/06/17 05:17:15;;;;;;;3.22;2.50;;;22.70;62.80;;;;;;5036895;28;20033;-78
2023/06/17 05:19:41;;;;;;;2.28;2.08;;;22.70;62.80;;;;;;5035461;28;20037;-78
2023/06/17 05:22:07;;;;;;;3.30;2.45;;;22.70;62.80;;;;;;5037089;28;20381;-77
2023/06/17 05:24:32;;;;;;;3.70;2.90;;;22.70;62.60;;;;;;5036761;28;20025;-78
2023/06/17 05:26:58;;;;;;;2.42;2.22;;;22.80;62.70;;;;;;5036307;28;20033;-77
2023/06/17 05:29:24;;;;;;;5.50;4.82;;;22.80;62.60;;;;;;5035720;28;20111;-78
2023/06/17 05:31:51;;;;;;;6.38;4.57;;;22.80;63.10;;;;;;5036469;28;20034;-78
2023/06/17 05:34:17;;;;;;;9.10;6.32;;;22.70;63.70;;;;;;5034899;28;20029;-78
2023/06/17 05:36:43;;;;;;;5.35;4.80;;;22.70;64.50;;;;;;5036126;28;20382;-78
2023/06/17 05:39:08;;;;;;;5.75;3.22;;;22.50;64.70;;;;;;5035928;28;20362;-78
2023/06/17 05:41:34;;;;;;;4.30;3.88;;;22.50;64.50;;;;;;5037102;28;20112;-78
2023/06/17 05:44:00;;;;;;;4.15;3.00;;;22.50;64.10;;;;;;5018756;28;20491;-78
2023/06/17 05:46:25;;;;;;;4.43;4.03;;;22.50;64.00;;;;;;5035027;28;20033;-77
2023/06/17 05:48:51;;;;;;;4.28;3.85;;;22.50;64.10;;;;;;5036342;28;20141;-78
2023/06/17 05:51:17;;;;;;;5.72;4.47;;;22.60;64.60;;;;;;5036620;28;20370;-78
2023/06/17 05:53:43;;;;;;;5.10;4.45;;;22.60;64.70;;;;;;5035639;28;20083;-78
2023/06/17 05:56:09;;;;;;;7.78;6.05;;;22.50;65.40;;;;;;5036063;28;20032;-78
2023/06/17 05:58:35;;;;;;;5.10;4.60;;;22.40;66.20;;;;;;5036029;28;20042;-78
2023/06/17 06:01:01;;;;;;;3.95;3.55;;;22.30;66.50;;;;;;5035422;28;20025;-77
2023/06/17 06:03:27;;;;;;;4.40;3.97;;;22.40;66.10;;;;;;5034386;28;20075;-78
2023/06/17 06:05:52;;;;;;;8.15;4.05;;;22.30;65.70;;;;;;5035338;28;20041;-78
2023/06/17 06:08:18;;;;;;;4.65;3.78;;;22.50;65.70;;;;;;5035486;28;20037;-79
2023/06/17 06:10:43;;;;;;;3.90;3.60;;;22.50;65.60;;;;;;5034596;28;20390;-78
2023/06/17 06:13:09;;;;;;;4.53;3.78;;;22.60;65.60;;;;;;5034570;28;20057;-79
2023/06/17 06:15:35;;;;;;;8.35;5.40;;;22.70;65.40;;;;;;5018291;28;20530;-78
2023/06/17 06:18:00;;;;;;;5.32;4.82;;;22.70;65.50;;;;;;5034559;28;20033;-78
2023/06/17 06:20:27;;;;;;;5.53;5.03;;;22.80;66.00;;;;;;5034551;28;20482;-77
2023/06/17 06:22:53;;;;;;;5.47;4.93;;;22.70;65.90;;;;;;5035233;28;20037;-78
2023/06/17 06:25:19;;;;;;;2.40;2.20;;;22.60;66.70;;;;;;5034896;28;20029;-78
2023/06/17 06:27:44;;;;;;;6.20;5.03;;;22.50;66.30;;;;;;5035178;28;20033;-78
2023/06/17 06:30:12;;;;;;;5.68;4.80;;;22.60;66.20;;;;;;5035823;28;20034;-78
2023/06/17 06:32:37;;;;;;;4.57;3.70;;;22.70;65.90;;;;;;5034356;28;20033;-78
2023/06/17 06:35:04;;;;;;;4.47;4.07;;;22.80;65.80;;;;;;5035490;28;20090;-78
2023/06/17 06:37:30;;;;;;;2.20;2.00;;;22.80;65.00;;;;;;5035362;28;20063;-78
2023/06/17 06:39:55;;;;;;;6.05;2.75;;;23.00;64.40;;;;;;5035318;28;20029;-78
2023/06/17 06:42:21;;;;;;;3.05;2.55;;;23.10;63.90;;;;;;5033875;28;20056;-78
2023/06/17 06:44:48;;;;;;;3.67;2.58;;;23.20;61.90;;;;;;5017259;28;20030;-78
2023/06/17 06:47:13;;;;;;;4.25;3.10;;;23.30;61.40;;;;;;5035258;28;20049;-78
2023/06/17 06:49:39;;;;;;;4.25;3.25;;;23.40;60.60;;;;;;5033760;28;20049;-78
2023/06/17 06:52:05;;;;;;;3.15;2.85;;;23.40;60.10;;;;;;5035173;28;20116;-78
2023/06/17 06:54:31;;;;;;;3.00;2.70;;;23.50;59.80;;;;;;5034884;28;20065;-78
2023/06/17 06:56:56;;;;;;;6.85;3.45;;;23.50;59.30;;;;;;5034800;28;20085;-78
2023/06/17 06:59:22;;;;;;;5.72;2.75;;;23.60;57.50;;;;;;5034960;28;20116;-78
2023/06/17 07:01:48;;;;;;;3.00;2.20;;;23.60;56.10;;;;;;5033796;28;20034;-78
2023/06/17 07:04:13;;;;;;;4.32;1.95;;;23.50;55.80;;;;;;5034878;28;20033;-78
2023/06/17 07:06:39;;;;;;;4.82;2.22;;;23.40;54.60;;;;;;5034928;28;20151;-78
2023/06/17 07:09:05;;;;;;;2.63;1.95;;;23.50;54.60;;;;;;5033514;28;20059;-78
2023/06/17 07:11:31;;;;;;;2.35;2.10;;;23.60;55.00;;;;;;5034700;28;20037;-78
2023/06/17 07:13:56;;;;;;;6.45;2.72;;;23.60;55.00;;;;;;5033330;28;20040;-78
2023/06/17 07:16:22;;;;;;;7.05;2.40;;;23.70;55.40;;;;;;5033598;28;20568;-78
2023/06/17 07:18:47;;;;;;;4.50;2.97;;;23.80;55.80;;;;;;5035190;28;20029;-78
2023/06/17 07:21:13;;;;;;;6.13;2.80;;;23.80;55.00;;;;;;5033899;28;20030;-78
2023/06/17 07:23:39;;;;;;;3.92;2.50;;;23.80;55.10;;;;;;5016920;28;20025;-78
2023/06/17 07:26:05;;;;;;;4.35;2.60;;;23.70;55.10;;;;;;5016918;28;20462;-78
2023/06/17 07:28:32;;;;;;;3.25;2.10;;;23.70;55.00;;;;;;5033286;28;20041;-78
2023/06/17 07:30:58;;;;;;;6.72;2.90;;;23.90;55.50;;;;;;5033287;28;20039;-77
2023/06/17 07:33:25;;;;;;;4.75;2.50;;;23.90;56.20;;;;;;5016483;28;20037;-78
2023/06/17 07:35:51;;;;;;;3.10;2.50;;;23.80;55.10;;;;;;5034335;28;20045;-77
2023/06/17 07:38:16;;;;;;;2.80;2.50;;;23.90;55.40;;;;;;5034824;28;20033;-77
2023/06/17 07:40:42;;;;;;;4.53;2.42;;;24.00;54.50;;;;;;5034231;28;20037;-78
2023/06/17 07:43:09;;;;;;;4.22;2.10;;;24.10;54.70;;;;;;5034150;28;20076;-78
2023/06/17 07:45:35;;;;;;;4.32;2.40;;;24.30;55.40;;;;;;5033011;28;20033;-78
2023/06/17 07:48:01;;;;;;;7.53;2.70;;;24.50;54.30;;;;;;5033716;28;20055;-78
2023/06/17 07:50:26;;;;;;;4.97;3.10;;;24.50;52.80;;;;;;5016711;28;20037;-77
2023/06/17 07:52:52;;;;;;;2.78;2.33;;;24.60;51.90;;;;;;5034063;28;20037;-77
2023/06/17 07:55:18;;;;;;;7.18;2.50;;;24.50;52.00;;;;;;5032795;28;20034;-78
2023/06/17 07:57:44;;;;;;;3.90;2.38;;;24.60;51.70;;;;;;5032716;28;20034;-77
2023/06/17 08:00:13;;;;;;;2.33;2.10;;;24.60;50.70;;;;;;5034005;28;20454;-77
2023/06/17 08:02:42;;;;;;;3.45;2.58;;;24.80;49.80;;;;;;5033945;28;20394;-78
2023/06/17 08:05:09;;;;;;;5.10;2.47;;;24.80;49.40;;;;;;5033871;28;20026;-77
2023/06/17 08:07:35;;;;;;;4.72;2.10;;;25.00;48.80;;;;;;5033796;28;20038;-77
2023/06/17 08:10:01;;;;;;;4.40;2.30;;;25.10;49.70;;;;;;5033744;28;20034;-77
2023/06/17 08:12:27;;;;;;;4.38;2.72;;;25.20;49.30;;;;;;5032425;28;20439;-77
2023/06/17 08:14:52;;;;;;;4.05;2.50;;;25.30;48.30;;;;;;5033093;28;20032;-77
2023/06/17 08:17:18;;;;;;;3.05;2.22;;;25.30;48.40;;;;;;5033865;28;20029;-77
2023/06/17 08:19:44;;;;;;;4.43;2.28;;;25.40;48.00;;;;;;5032858;28;20384;-78
2023/06/17 08:22:10;;;;;;;3.63;2.28;;;25.40;47.70;;;;;;5033908;28;20030;-78
2023/06/17 08:24:36;;;;;;;3.38;2.15;;;25.50;47.80;;;;;;5033598;28;20029;-78
2023/06/17 08:27:02;;;;;;;3.47;1.90;;;25.50;47.50;;;;;;5033018;28;20056;-78
2023/06/17 08:29:27;;;;;;;4.55;2.13;;;25.50;47.60;;;;;;5033561;28;20084;-78
2023/06/17 08:31:54;;;;;;;3.05;2.10;;;25.60;47.60;;;;;;5032485;28;20030;-78
2023/06/17 08:34:21;;;;;;;2.58;1.90;;;25.70;47.10;;;;;;5033623;28;20044;-78
2023/06/17 08:36:52;;;;;;;6.63;2.22;;;25.80;47.00;;;;;;5033475;28;20029;-78
2023/06/17 08:39:18;;;;;;;2.65;2.17;;;25.80;46.30;;;;;;5032366;28;20493;-78
2023/06/17 08:41:45;;;;;;;4.15;2.10;;;25.90;46.60;;;;;;5033599;28;20459;-78
2023/06/17 08:44:13;;;;;;;4.38;2.10;;;26.00;46.50;;;;;;5033237;28;20037;-78
2023/06/17 08:46:41;;;;;;;2.85;1.92;;;26.10;45.90;;;;;;5032332;28;20029;-78
2023/06/17 08:49:08;;;;;;;2.20;2.00;;;26.10;45.80;;;;;;5033677;28;20085;-78
2023/06/17 08:51:35;;;;;;;4.93;2.20;;;26.30;45.90;;;;;;5033541;28;20061;-78
2023/06/17 08:54:03;;;;;;;2.90;2.22;;;26.30;46.20;;;;;;5033856;28;20053;-78
2023/06/17 08:56:29;;;;;;;4.40;1.90;;;26.30;45.40;;;;;;5033898;28;20080;-78
2023/06/17 08:58:55;;;;;;;4.72;2.13;;;26.40;44.80;;;;;;5033278;28;20037;-78
2023/06/17 09:01:22;;;;;;;3.70;1.77;;;26.40;44.60;;;;;;5032993;28;20496;-78
2023/06/17 09:03:51;;;;;;;3.15;2.42;;;26.60;44.90;;;;;;5033323;28;20025;-79
2023/06/17 09:06:28;;;;;;;3.38;1.98;;;26.70;44.20;;;;;;5033325;28;20025;-79
2023/06/17 09:08:55;;;;;;;4.80;2.05;;;26.80;43.30;;;;;;5033151;28;20037;-80
2023/06/17 09:11:32;;;;;;;2.30;2.10;;;26.80;43.70;;;;;;5033213;28;20037;-79
2023/06/17 09:13:59;;;;;;;2.83;2.00;;;26.90;43.50;;;;;;5033722;28;20212;-78
2023/06/17 09:16:27;;;;;;;3.00;1.90;;;27.00;43.50;;;;;;5031583;28;20026;-78
2023/06/17 09:19:00;;;;;;;4.57;1.98;;;27.20;42.80;;;;;;5033678;28;20112;-79
2023/06/17 09:21:26;;;;;;;2.72;1.98;;;27.20;41.80;;;;;;5031792;28;20487;-78
2023/06/17 09:23:57;;;;;;;2.03;1.70;;;27.20;41.90;;;;;;5032278;28;20037;-78
2023/06/17 09:26:29;;;;;;;2.92;1.55;;;27.20;42.30;;;;;;5031686;28;20056;-79
2023/06/17 09:29:06;;;;;;;4.75;1.80;;;27.20;41.40;;;;;;5033045;28;20036;-77
2023/06/17 09:31:33;;;;;;;2.10;1.80;;;27.20;41.70;;;;;;5033152;28;20030;-77
2023/06/17 09:34:04;;;;;;;2.80;1.80;;;27.20;41.10;;;;;;5032919;28;20049;-77
2023/06/17 09:36:30;;;;;;;6.68;2.15;;;27.20;41.60;;;;;;5033919;28;20026;-78
2023/06/17 09:38:55;;;;;;;3.45;1.92;;;27.30;41.70;;;;;;5037110;28;20037;-78
2023/06/17 09:41:23;;;;;;;4.03;1.83;;;27.50;42.30;;;;;;5036065;28;20032;-77
2023/06/17 09:43:53;;;;;;;4.57;1.70;;;27.60;42.10;;;;;;5035002;28;20457;-78
2023/06/17 09:46:29;;;;;;;5.78;2.13;;;27.70;41.80;;;;;;5036321;28;20116;-78
2023/06/17 09:48:58;;;;;;;2.55;1.73;;;27.70;41.50;;;;;;5036350;28;20057;-78
2023/06/17 09:51:25;;;;;;;6.18;2.35;;;27.80;41.60;;;;;;5036908;28;20072;-77
2023/06/17 09:53:52;;;;;;;2.72;2.10;;;27.90;42.40;;;;;;5036151;28;20061;-77
2023/06/17 09:56:19;;;;;;;2.50;2.03;;;28.00;41.80;;;;;;5036254;28;20057;-78
2023/06/17 09:58:47;;;;;;;2.30;1.55;;;28.00;40.70;;;;;;5035982;28;20493;-78
2023/06/17 10:01:13;;;;;;;2.80;1.80;;;28.00;40.90;;;;;;5037229;28;20025;-78
2023/06/17 10:03:40;;;;;;;2.05;1.80;;;28.10;40.70;;;;;;5035991;28;20032;-77
2023/06/17 10:06:11;;;;;;;2.83;2.08;;;28.10;40.50;;;;;;5035219;28;20037;-78
2023/06/17 10:08:39;;;;;;;4.93;1.57;;;28.10;40.40;;;;;;5036063;28;20060;-78
2023/06/17 10:11:05;;;;;;;3.17;2.00;;;28.20;41.60;;;;;;5034629;28;20033;-78
2023/06/17 10:13:39;;;;;;;4.03;1.90;;;28.30;41.50;;;;;;5034593;28;20033;-78
2023/06/17 10:16:10;;;;;;;4.60;2.05;;;28.40;41.50;;;;;;5035721;28;20108;-77
2023/06/17 10:18:39;;;;;;;2.67;1.60;;;28.40;41.60;;;;;;5036137;28;20084;-77
2023/06/17 10:21:09;;;;;;;5.50;1.95;;;28.50;42.10;;;;;;5036061;28;20045;-77
2023/06/17 10:23:37;;;;;;;4.40;1.73;;;28.80;42.90;;;;;;5035153;28;20032;-77
2023/06/17 10:26:06;;;;;;;3.33;2.00;;;28.90;41.90;;;;;;5034479;28;20025;-77
2023/06/17 10:29:00;;;;;;;5.93;1.70;;;29.00;40.10;;;;;;5035491;28;20030;-77
2023/06/17 10:31:40;;;;;;;3.20;1.80;;;28.90;40.00;;;;;;5035598;28;20029;-78
2023/06/17 10:34:08;;;;;;;2.33;1.65;;;29.00;40.70;;;;;;5035815;28;20037;-77
2023/06/17 10:36:37;;;;;;;6.30;2.28;;;28.90;41.00;;;;;;5035175;28;20108;-77
2023/06/17 10:39:05;;;;;;;4.07;2.00;;;29.00;41.20;;;;;;5035172;28;20079;-77
2023/06/17 10:41:40;;;;;;;4.30;2.22;;;29.10;42.00;;;;;;5035487;28;20037;-77
2023/06/17 10:44:28;;;;;;;6.72;2.00;;;29.10;40.10;;;;;;5035472;28;20060;-77
2023/06/17 10:46:55;;;;;;;3.42;1.65;;;29.20;39.90;;;;;;5035193;28;20021;-77
2023/06/17 10:49:20;;;;;;;5.57;2.22;;;29.30;39.70;;;;;;5016189;28;20061;-77
2023/06/17 10:51:59;;;;;;;4.82;2.30;;;29.30;39.70;;;;;;5034806;28;20053;-77
2023/06/17 10:54:33;;;;;;;4.03;2.25;;;29.30;39.30;;;;;;5035236;28;20073;-77
2023/06/17 10:57:04;;;;;;;4.70;2.45;;;29.10;39.20;;;;;;5034885;28;20022;-77
2023/06/17 10:59:31;;;;;;;2.92;1.98;;;29.10;40.20;;;;;;5035043;28;20485;-77
2023/06/17 11:02:08;;;;;;;5.18;1.90;;;29.20;40.10;;;;;;5034987;28;20065;-77
2023/06/17 11:04:42;;;;;;;5.47;2.03;;;29.20;40.00;;;;;;5035459;28;20029;-77
2023/06/17 11:07:08;;;;;;;2.22;1.80;;;29.20;40.30;;;;;;5035196;28;20025;-78
2023/06/17 11:09:36;;;;;;;3.95;1.90;;;29.40;40.10;;;;;;5035159;28;20136;-77
2023/06/17 11:12:02;;;;;;;3.47;1.80;;;29.50;40.30;;;;;;5034609;28;20037;-77
2023/06/17 11:14:37;;;;;;;4.45;1.80;;;29.60;39.60;;;;;;5034741;28;20450;-77
2023/06/17 11:17:03;;;;;;;2.22;1.88;;;29.70;39.20;;;;;;5033941;28;20435;-77
2023/06/17 11:19:29;;;;;;;4.85;1.83;;;29.80;39.30;;;;;;5034943;28;20072;-77
2023/06/17 11:22:07;;;;;;;2.75;1.92;;;29.80;39.70;;;;;;5034511;28;20458;-77
2023/06/17 11:24:33;;;;;;;2.15;1.95;;;29.70;39.50;;;;;;5034803;28;20028;-77
2023/06/17 11:27:00;;;;;;;2.33;1.85;;;29.70;38.90;;;;;;5034576;28;20476;-77
2023/06/17 11:29:27;;;;;;;1.90;1.80;;;29.70;38.00;;;;;;5034378;28;20108;-77
2023/06/17 11:32:02;;;;;;;2.17;1.90;;;29.80;38.20;;;;;;5033327;28;20124;-78
2023/06/17 11:34:34;;;;;;;4.60;1.92;;;29.80;38.10;;;;;;5034757;28;20029;-77
2023/06/17 11:37:01;;;;;;;;;;;29.90;38.00;;;;;;5034767;28;20036;-77
2023/06/17 11:39:29;;;;;;;2.33;1.70;;;30.00;38.20;;;;;;5034233;28;19944;-77
2023/06/17 11:42:01;;;;;;;4.63;1.92;;;30.10;38.30;;;;;;5032854;28;20029;-78
2023/06/17 11:44:32;;;;;;;2.65;2.00;;;30.20;38.40;;;;;;5033145;28;20492;-77
2023/06/17 11:47:05;;;;;;;3.03;1.98;;;30.30;37.10;;;;;;5033841;28;20054;-77
2023/06/17 11:49:31;;;;;;;3.28;1.90;;;30.30;37.10;;;;;;5034189;28;20053;-78
2023/06/17 11:52:09;;;;;;;4.22;2.28;;;30.30;36.60;;;;;;5034385;28;20041;-77
2023/06/17 11:54:45;;;;;;;3.35;2.00;;;30.20;36.80;;;;;;5033351;28;20079;-78
2023/06/17 11:57:16;;;;;;;2.13;1.80;;;30.40;37.50;;;;;;5033973;28;20048;-77
2023/06/17 11:59:43;;;;;;;2.33;2.10;;;30.40;38.00;;;;;;5034231;28;20052;-78
2023/06/17 12:02:10;;;;;;;4.25;1.98;;;30.50;38.30;;;;;;5033922;28;20030;-78
2023/06/17 12:04:36;;;;;;;6.60;2.08;;;30.60;37.80;;;;;;5033620;28;20047;-78
2023/06/17 12:07:07;;;;;;;3.00;1.88;;;30.70;37.20;;;;;;5032650;28;20021;-76
2023/06/17 12:09:37;;;;;;;2.70;2.03;;;30.70;37.10;;;;;;5034418;28;20056;-77
2023/06/17 12:12:04;;;;;;;4.43;1.60;;;30.90;37.90;;;;;;5033664;28;20061;-77
2023/06/17 12:14:30;;;;;;;2.83;1.90;;;30.90;37.30;;;;;;5034016;28;20056;-77
2023/06/17 12:16:55;;;;;;;3.20;1.67;;;31.00;37.30;;;;;;5033602;28;20053;-77
2023/06/17 12:19:23;;;;;;;4.55;2.13;;;31.10;37.70;;;;;;5033618;28;20124;-77
2023/06/17 12:21:49;;;;;;;4.63;1.73;;;31.20;36.90;;;;;;5033512;28;20026;-77
2023/06/17 12:24:15;;;;;;;1.70;1.40;;;31.20;37.30;;;;;;5033888;28;20029;-77
2023/06/17 12:26:41;;;;;;;3.80;1.67;;;31.30;37.10;;;;;;5033913;28;20133;-77
2023/06/17 12:29:09;;;;;;;1.95;1.75;;;31.30;37.00;;;;;;5034008;28;20088;-77
2023/06/17 12:31:35;;;;;;;4.68;1.80;;;31.40;36.90;;;;;;5033441;28;20042;-78
2023/06/17 12:34:02;;;;;;;2.47;2.22;;;31.30;37.10;;;;;;5033438;28;20030;-77
2023/06/17 12:36:28;;;;;;;3.03;1.90;;;31.40;37.40;;;;;;5033518;28;20021;-77
2023/06/17 12:38:53;;;;;;;1.80;1.70;;;31.30;37.30;;;;;;5033634;28;20478;-78
2023/06/17 12:41:19;;;;;;;4.45;1.58;;;31.30;36.90;;;;;;5033401;28;20033;-78
2023/06/17 12:43:45;;;;;;;1.95;1.63;;;31.30;37.20;;;;;;5032454;28;20116;-78
2023/06/17 12:46:11;;;;;;;6.90;3.17;;;31.50;37.20;;;;;;5033377;28;20107;-77
2023/06/17 12:48:37;;;;;;;2.17;1.95;;;31.50;36.60;;;;;;5015909;28;20099;-78